Terminal Aerodrome Forecast
Issued by NWS Newport/Morehead City, NC

Home | Current Version | Previous Version | Graphics & Text | Print | Product List | Glossary On
Versions: 1 2 3 4 5 6 7 8 9 10 11 12 13 14
000
FTUS42 KMHX 202300
TAFEWN
TAF
KEWN 202321Z 2100/2124 02015G27KT P6SM OVC010
     FM210500 01015G25KT P6SM OVC008
     FM211300 01010KT P6SM OVC015=

USA.gov is the U.S. government's official web portal to all federal, state and local government web resources and services.